Time;durP1;ratioP1;P1;durP2;ratioP2;P2;SDS_P1;SDS_P2;PMS_P1;PMS_P2;Temp;Humidity;BMP_temperature;BMP_pressure;BME280_temperature;BME280_humidity;BME280_pressure;Samples;Min_cycle;Max_cycle;Signal;HPM_P1;HPM_P2
2022/08/24 00:00:08;;;;;;;9.32;5.93;;;;;;;;;;5021216;28;20389;-83
2022/08/24 00:02:34;;;;;;;8.23;5.30;;;;;;;;;;5022129;28;20029;-83
2022/08/24 00:05:00;;;;;;;7.57;5.15;;;;;;;;;;5003729;28;20025;-83
2022/08/24 00:07:26;;;;;;;8.48;5.10;;;;;;;;;;5018692;28;20026;-83
2022/08/24 00:09:52;;;;;;;9.30;5.70;;;;;;;;;;5004052;28;20025;-84
2022/08/24 00:12:19;;;;;;;9.25;5.97;;;;;;;;;;5022121;28;20025;-82
2022/08/24 00:14:45;;;;;;;7.80;5.25;;;;;;;;;;5003518;28;20088;-82
2022/08/24 00:17:12;;;;;;;9.93;5.40;;;;;;;;;;5001764;28;20140;-83
2022/08/24 00:19:38;;;;;;;10.43;6.38;;;;;;;;;;5004950;28;20448;-83
2022/08/24 00:22:05;;;;;;;8.18;5.30;;;;;;;;;;5022232;28;20045;-83
2022/08/24 00:24:31;;;;;;;9.13;5.13;;;;;;;;;;5004089;28;20481;-82
2022/08/24 00:26:58;;;;;;;9.75;5.60;;;;;;;;;;5019675;28;20125;-83
2022/08/24 00:29:24;;;;;;;8.45;5.20;;;;;;;;;;4998422;28;20148;-81
2022/08/24 00:31:50;;;;;;;8.45;5.63;;;;;;;;;;5002554;28;20022;-82
2022/08/24 00:34:17;;;;;;;9.35;5.65;;;;;;;;;;5003775;28;20026;-81
2022/08/24 00:36:44;;;;;;;9.07;5.07;;;;;;;;;;4987894;28;20034;-83
2022/08/24 00:39:10;;;;;;;9.35;5.68;;;;;;;;;;5003116;28;20086;-83
2022/08/24 00:41:40;;;;;;;8.00;4.95;;;;;;;;;;4991718;28;20181;-83
2022/08/24 00:44:06;;;;;;;8.20;5.72;;;;;;;;;;4983337;28;20030;-83
2022/08/24 00:46:50;;;;;;;9.70;5.90;;;;;;;;;;5015062;28;20026;-83
2022/08/24 00:49:23;;;;;;;8.75;5.40;;;;;;;;;;5002921;28;20040;-83
2022/08/24 00:51:54;;;;;;;8.90;5.40;;;;;;;;;;4987907;28;20122;-83
2022/08/24 00:54:22;;;;;;;10.25;5.88;;;;;;;;;;4994485;28;20109;-83
2022/08/24 00:56:51;;;;;;;8.77;4.90;;;;;;;;;;4985405;28;20033;-83
2022/08/24 00:59:21;;;;;;;8.32;5.38;;;;;;;;;;5020145;28;20049;-83
2022/08/24 01:01:49;;;;;;;8.40;5.25;;;;;;;;;;5019827;28;20033;-82
2022/08/24 01:04:18;;;;;;;8.52;5.55;;;;;;;;;;5017764;28;20121;-83
2022/08/24 01:06:45;;;;;;;8.80;5.07;;;;;;;;;;4992360;28;20022;-83
2022/08/24 01:09:11;;;;;;;7.75;4.95;;;;;;;;;;5015617;28;20083;-83
2022/08/24 01:11:37;;;;;;;7.50;5.15;;;;;;;;;;5020899;28;20029;-82
2022/08/24 01:14:03;;;;;;;8.25;5.30;;;;;;;;;;5017424;28;20591;-83
2022/08/24 01:19:27;;;;;;;7.65;4.97;;;;;;;;;;5001927;28;20041;-83
2022/08/24 01:22:15;;;;;;;7.25;4.75;;;;;;;;;;5000393;28;20032;-82
2022/08/24 01:24:41;;;;;;;8.32;4.65;;;;;;;;;;5013812;28;20029;-83
2022/08/24 01:27:09;;;;;;;8.43;5.45;;;;;;;;;;5017347;28;20022;-83
2022/08/24 01:29:36;;;;;;;8.07;4.88;;;;;;;;;;4999776;28;20038;-82
2022/08/24 01:32:03;;;;;;;7.15;4.70;;;;;;;;;;5005794;28;20440;-81
2022/08/24 01:34:30;;;;;;;8.25;5.55;;;;;;;;;;5000128;28;20033;-81
2022/08/24 01:36:58;;;;;;;8.45;4.72;;;;;;;;;;5000024;28;20121;-82
2022/08/24 01:39:53;;;;;;;6.78;4.40;;;;;;;;;;4984614;28;20054;-82
2022/08/24 01:42:19;;;;;;;7.05;4.85;;;;;;;;;;4971357;28;20133;-82
2022/08/24 01:44:46;;;;;;;8.85;5.07;;;;;;;;;;5017995;28;20512;-82
2022/08/24 01:47:13;;;;;;;7.60;4.60;;;;;;;;;;5017485;28;20564;-82
2022/08/24 01:49:41;;;;;;;6.10;4.00;;;;;;;;;;5000455;28;20022;-82
2022/08/24 01:52:07;;;;;;;7.63;4.70;;;;;;;;;;5016318;28;20059;-82
2022/08/24 01:54:34;;;;;;;8.35;4.72;;;;;;;;;;4995986;28;20028;-82
2022/08/24 01:57:00;;;;;;;7.38;4.95;;;;;;;;;;5017908;28;20041;-82
2022/08/24 01:59:26;;;;;;;7.72;5.10;;;;;;;;;;4989658;28;20045;-83
2022/08/24 02:01:56;;;;;;;7.05;4.35;;;;;;;;;;4981364;28;20026;-83
2022/08/24 02:04:22;;;;;;;7.68;4.57;;;;;;;;;;5015855;28;20026;-83
2022/08/24 02:06:48;;;;;;;8.13;5.30;;;;;;;;;;4999453;28;20033;-83
2022/08/24 02:09:14;;;;;;;8.13;4.68;;;;;;;;;;5000947;28;20033;-82
2022/08/24 02:11:41;;;;;;;8.35;4.90;;;;;;;;;;5018034;28;20033;-82
2022/08/24 02:14:07;;;;;;;7.82;4.65;;;;;;;;;;4998984;28;20093;-82
2022/08/24 02:16:33;;;;;;;9.52;4.15;;;;;;;;;;4997527;28;20056;-83
2022/08/24 02:18:59;;;;;;;7.28;4.22;;;;;;;;;;4981322;28;20564;-82
2022/08/24 02:21:25;;;;;;;7.30;5.43;;;;;;;;;;4998126;28;20023;-83
2022/08/24 02:23:51;;;;;;;9.65;5.63;;;;;;;;;;4998961;28;20090;-82
2022/08/24 02:26:18;;;;;;;8.13;5.18;;;;;;;;;;5015570;28;20053;-82
2022/08/24 02:28:44;;;;;;;8.23;4.97;;;;;;;;;;4999701;28;20029;-82
2022/08/24 02:31:11;;;;;;;8.88;4.88;;;;;;;;;;5017205;28;20026;-82
2022/08/24 02:33:38;;;;;;;7.53;5.05;;;;;;;;;;5015376;28;20437;-82
2022/08/24 02:36:04;;;;;;;7.88;4.68;;;;;;;;;;5016863;28;20029;-82
2022/08/24 02:38:31;;;;;;;7.18;4.57;;;;;;;;;;4999077;28;20117;-83
2022/08/24 02:40:57;;;;;;;7.60;4.95;;;;;;;;;;4999426;28;20565;-83
2022/08/24 02:43:23;;;;;;;6.90;4.20;;;;;;;;;;5000601;28;20464;-83
2022/08/24 02:45:50;;;;;;;6.65;4.45;;;;;;;;;;5014717;28;20060;-83
2022/08/24 02:48:16;;;;;;;7.07;4.68;;;;;;;;;;5017639;28;20347;-82
2022/08/24 02:50:44;;;;;;;8.90;5.15;;;;;;;;;;5010774;28;20033;-83
2022/08/24 02:53:12;;;;;;;9.23;4.93;;;;;;;;;;4998638;28;20038;-82
2022/08/24 02:55:40;;;;;;;8.85;5.20;;;;;;;;;;4993271;28;20072;-83
2022/08/24 02:58:06;;;;;;;7.38;4.78;;;;;;;;;;4995270;28;20033;-81
2022/08/24 03:00:32;;;;;;;7.15;4.82;;;;;;;;;;4999245;28;20486;-83
2022/08/24 03:02:58;;;;;;;7.63;4.93;;;;;;;;;;5017016;28;20470;-82
2022/08/24 03:05:24;;;;;;;8.55;5.20;;;;;;;;;;4988650;28;20026;-82
2022/08/24 03:07:51;;;;;;;7.57;4.75;;;;;;;;;;4981454;28;20402;-83
2022/08/24 03:10:18;;;;;;;7.80;4.93;;;;;;;;;;4998484;28;20060;-83
2022/08/24 03:12:44;;;;;;;8.50;4.60;;;;;;;;;;4980833;28;20023;-83
2022/08/24 03:15:10;;;;;;;8.40;5.07;;;;;;;;;;5008907;28;20030;-83
2022/08/24 03:17:37;;;;;;;7.20;4.75;;;;;;;;;;5003048;28;20088;-81
2022/08/24 03:20:05;;;;;;;8.35;5.63;;;;;;;;;;4997656;28;20026;-82
2022/08/24 03:22:31;;;;;;;8.02;4.72;;;;;;;;;;5021682;28;20017;-83
2022/08/24 03:24:57;;;;;;;7.93;4.70;;;;;;;;;;5002339;28;20502;-83
2022/08/24 03:27:23;;;;;;;8.25;5.18;;;;;;;;;;5002927;28;20034;-83
2022/08/24 03:29:49;;;;;;;8.13;5.30;;;;;;;;;;5003299;28;20030;-82
2022/08/24 03:32:15;;;;;;;8.82;4.95;;;;;;;;;;5003320;28;20038;-83
2022/08/24 03:34:41;;;;;;;8.68;5.32;;;;;;;;;;5002073;28;20520;-83
2022/08/24 03:37:08;;;;;;;9.02;5.20;;;;;;;;;;5020163;28;20030;-83
2022/08/24 03:39:34;;;;;;;9.55;6.10;;;;;;;;;;5002928;28;20025;-82
2022/08/24 03:42:00;;;;;;;7.72;5.03;;;;;;;;;;4993832;28;20037;-83
2022/08/24 03:44:26;;;;;;;7.70;4.95;;;;;;;;;;5002562;28;20029;-82
2022/08/24 03:46:53;;;;;;;9.23;5.40;;;;;;;;;;4998438;28;20026;-83
2022/08/24 03:49:19;;;;;;;9.23;5.43;;;;;;;;;;5002544;28;20150;-83
2022/08/24 03:51:45;;;;;;;7.93;5.20;;;;;;;;;;4995546;28;20040;-83
2022/08/24 03:54:11;;;;;;;8.65;5.05;;;;;;;;;;4984143;28;20371;-83
2022/08/24 03:56:38;;;;;;;9.43;4.90;;;;;;;;;;5002138;28;20029;-81
2022/08/24 03:59:04;;;;;;;7.43;4.80;;;;;;;;;;5017240;28;20062;-81
2022/08/24 04:01:31;;;;;;;8.20;5.10;;;;;;;;;;5019246;28;20032;-83
2022/08/24 04:03:57;;;;;;;10.85;6.05;;;;;;;;;;5003240;28;20038;-83
2022/08/24 04:06:23;;;;;;;8.57;5.25;;;;;;;;;;5019238;28;20532;-83
2022/08/24 04:08:51;;;;;;;7.72;5.57;;;;;;;;;;5019786;28;20026;-83
2022/08/24 04:11:19;;;;;;;8.02;5.55;;;;;;;;;;5000080;28;20026;-82
2022/08/24 04:13:46;;;;;;;9.02;5.40;;;;;;;;;;4992125;28;20021;-83
2022/08/24 04:16:14;;;;;;;7.47;5.35;;;;;;;;;;4988769;28;20457;-82
2022/08/24 04:18:40;;;;;;;8.48;5.13;;;;;;;;;;5017808;28;20033;-83
2022/08/24 04:21:06;;;;;;;8.48;5.03;;;;;;;;;;5017031;28;20045;-82
2022/08/24 04:23:32;;;;;;;8.60;5.03;;;;;;;;;;4991269;28;20021;-83
2022/08/24 04:26:03;;;;;;;8.95;6.05;;;;;;;;;;5002630;28;20033;-82
2022/08/24 04:28:29;;;;;;;8.63;5.50;;;;;;;;;;5003398;28;20164;-82
2022/08/24 04:30:56;;;;;;;8.77;5.45;;;;;;;;;;4998750;28;20133;-82
2022/08/24 04:33:22;;;;;;;11.40;4.82;;;;;;;;;;5019989;28;20025;-82
2022/08/24 04:35:49;;;;;;;10.27;5.68;;;;;;;;;;5019981;28;20030;-83
2022/08/24 04:38:18;;;;;;;8.43;5.50;;;;;;;;;;5018300;28;20063;-83
2022/08/24 04:40:45;;;;;;;8.18;5.30;;;;;;;;;;4993808;28;20037;-82
2022/08/24 04:43:13;;;;;;;8.07;5.25;;;;;;;;;;5020346;28;20033;-81
2022/08/24 04:45:44;;;;;;;8.02;5.22;;;;;;;;;;5020052;28;20010;-83
2022/08/24 04:48:10;;;;;;;8.07;5.05;;;;;;;;;;5002362;28;20157;-83
2022/08/24 04:50:37;;;;;;;8.77;5.35;;;;;;;;;;4996940;28;20033;-82
2022/08/24 04:53:04;;;;;;;7.30;5.25;;;;;;;;;;4996768;28;20071;-84
2022/08/24 04:55:31;;;;;;;12.68;6.03;;;;;;;;;;5013889;28;20026;-83
2022/08/24 04:57:57;;;;;;;10.30;5.70;;;;;;;;;;4998415;28;20034;-83
2022/08/24 05:00:23;;;;;;;9.43;5.57;;;;;;;;;;4986981;28;20030;-83
2022/08/24 05:02:49;;;;;;;8.85;5.13;;;;;;;;;;5009561;28;20026;-83
2022/08/24 05:05:15;;;;;;;8.50;5.07;;;;;;;;;;5002147;28;20022;-83
2022/08/24 05:07:43;;;;;;;8.38;5.00;;;;;;;;;;5017591;28;20024;-83
2022/08/24 05:10:10;;;;;;;10.85;4.90;;;;;;;;;;5000839;28;20037;-82
2022/08/24 05:12:36;;;;;;;8.95;5.35;;;;;;;;;;5002141;28;20520;-83
2022/08/24 05:15:03;;;;;;;10.43;5.10;;;;;;;;;;5019406;28;20072;-84
2022/08/24 05:17:30;;;;;;;9.25;5.03;;;;;;;;;;5020876;28;20049;-83
2022/08/24 05:19:57;;;;;;;8.90;5.43;;;;;;;;;;5003257;28;20070;-83
2022/08/24 05:22:23;;;;;;;7.75;5.13;;;;;;;;;;4982418;28;20060;-83
2022/08/24 05:24:49;;;;;;;7.90;5.07;;;;;;;;;;5008178;28;20021;-82
2022/08/24 05:27:16;;;;;;;7.63;4.68;;;;;;;;;;4985573;28;20026;-83
2022/08/24 05:29:43;;;;;;;8.10;4.95;;;;;;;;;;5013508;28;20030;-81
2022/08/24 05:32:09;;;;;;;8.48;4.90;;;;;;;;;;5001247;28;20030;-83
2022/08/24 05:34:35;;;;;;;11.30;5.63;;;;;;;;;;4998558;28;20025;-82
2022/08/24 05:37:01;;;;;;;7.63;5.13;;;;;;;;;;4991228;28;20470;-82
2022/08/24 05:39:29;;;;;;;7.95;4.93;;;;;;;;;;4993334;28;20027;-82
2022/08/24 05:41:55;;;;;;;6.45;4.18;;;;;;;;;;5015774;28;20022;-82
2022/08/24 05:44:23;;;;;;;8.43;5.28;;;;;;;;;;5000733;28;20137;-83
2022/08/24 05:46:49;;;;;;;7.50;5.15;;;;;;;;;;4995780;28;20021;-82
2022/08/24 05:49:15;;;;;;;7.63;5.00;;;;;;;;;;5008217;28;20077;-83
2022/08/24 05:51:41;;;;;;;7.55;5.00;;;;;;;;;;5016553;28;20028;-83
2022/08/24 05:54:08;;;;;;;8.80;5.25;;;;;;;;;;5001429;28;20439;-83
2022/08/24 05:56:34;;;;;;;8.85;5.15;;;;;;;;;;5000222;28;20025;-83
2022/08/24 05:59:00;;;;;;;8.00;5.10;;;;;;;;;;5018942;28;20033;-83
2022/08/24 06:01:26;;;;;;;8.43;5.82;;;;;;;;;;5001582;28;20024;-82
2022/08/24 06:03:53;;;;;;;7.70;5.45;;;;;;;;;;5001297;28;20105;-83
2022/08/24 06:06:20;;;;;;;7.90;5.43;;;;;;;;;;5000364;28;20026;-84
2022/08/24 06:08:47;;;;;;;8.30;5.10;;;;;;;;;;5001827;28;20030;-82
2022/08/24 06:11:23;;;;;;;8.60;5.65;;;;;;;;;;4997906;28;20093;-83
2022/08/24 06:13:49;;;;;;;8.55;5.55;;;;;;;;;;5010707;28;20036;-82
2022/08/24 06:16:15;;;;;;;8.90;5.35;;;;;;;;;;4988352;28;20572;-81
2022/08/24 06:18:41;;;;;;;7.38;4.82;;;;;;;;;;5017214;28;20041;-84
2022/08/24 06:21:09;;;;;;;7.97;5.20;;;;;;;;;;5001689;28;20030;-82
2022/08/24 06:23:35;;;;;;;8.77;5.53;;;;;;;;;;5001461;28;20026;-82
2022/08/24 06:28:46;;;;;;;9.48;6.05;;;;;;;;;;5017718;28;20065;-84
2022/08/24 06:31:12;;;;;;;8.35;5.03;;;;;;;;;;5001341;28;20084;-83
2022/08/24 06:33:38;;;;;;;7.97;5.38;;;;;;;;;;5001367;28;20079;-82
2022/08/24 06:36:05;;;;;;;8.73;5.65;;;;;;;;;;5000683;28;20026;-83
2022/08/24 06:38:31;;;;;;;8.15;6.20;;;;;;;;;;4992940;28;20026;-83
2022/08/24 06:40:57;;;;;;;8.25;5.35;;;;;;;;;;4986054;28;20502;-82
2022/08/24 06:43:23;;;;;;;8.18;5.40;;;;;;;;;;4993452;28;20026;-82
2022/08/24 06:45:49;;;;;;;7.75;5.78;;;;;;;;;;5001588;28;20033;-83
2022/08/24 06:48:16;;;;;;;9.35;5.80;;;;;;;;;;5001658;28;20516;-82
2022/08/24 06:50:42;;;;;;;8.93;5.63;;;;;;;;;;5000894;28;20076;-84
2022/08/24 06:53:08;;;;;;;7.90;5.50;;;;;;;;;;5019388;28;20057;-84
2022/08/24 06:55:34;;;;;;;8.95;6.65;;;;;;;;;;4997673;28;20548;-84
2022/08/24 06:58:01;;;;;;;9.55;5.95;;;;;;;;;;5019660;28;20477;-82
2022/08/24 07:00:29;;;;;;;9.00;6.32;;;;;;;;;;4993017;28;20030;-84
2022/08/24 07:02:55;;;;;;;9.15;5.55;;;;;;;;;;5012716;28;20077;-84
2022/08/24 07:05:21;;;;;;;8.57;5.70;;;;;;;;;;5006317;28;20017;-84
2022/08/24 07:07:47;;;;;;;8.15;5.57;;;;;;;;;;4992901;28;20551;-84
2022/08/24 07:10:13;;;;;;;7.68;5.55;;;;;;;;;;5020188;28;20076;-82
2022/08/24 07:12:39;;;;;;;10.43;6.32;;;;;;;;;;5018852;28;20034;-83
2022/08/24 07:15:06;;;;;;;11.20;5.68;;;;;;;;;;5018257;28;20060;-83
2022/08/24 07:17:32;;;;;;;8.27;5.95;;;;;;;;;;4976544;28;20047;-84
2022/08/24 07:19:58;;;;;;;9.48;5.88;;;;;;;;;;4977059;28;20054;-84
2022/08/24 07:22:24;;;;;;;8.60;5.30;;;;;;;;;;4977150;28;20057;-84
2022/08/24 07:24:50;;;;;;;9.27;6.03;;;;;;;;;;4977866;28;20112;-84
2022/08/24 07:27:16;;;;;;;9.05;6.10;;;;;;;;;;4968797;28;20018;-82
2022/08/24 07:29:42;;;;;;;8.07;5.93;;;;;;;;;;4976985;28;20027;-82
2022/08/24 07:32:09;;;;;;;8.68;6.20;;;;;;;;;;4974893;28;20038;-82
2022/08/24 07:34:36;;;;;;;9.20;6.60;;;;;;;;;;4978748;28;20102;-85
2022/08/24 07:37:02;;;;;;;9.15;6.43;;;;;;;;;;4978061;28;20589;-83
2022/08/24 07:39:29;;;;;;;8.68;5.13;;;;;;;;;;4971583;28;20479;-83
2022/08/24 07:41:56;;;;;;;7.72;4.88;;;;;;;;;;4977151;28;20026;-81
2022/08/24 07:44:22;;;;;;;8.77;5.75;;;;;;;;;;4962192;28;20483;-82
2022/08/24 07:46:48;;;;;;;7.35;5.35;;;;;;;;;;4962317;29;20063;-83
2022/08/24 07:49:14;;;;;;;9.23;5.57;;;;;;;;;;4973923;28;20030;-85
2022/08/24 07:51:40;;;;;;;8.18;5.40;;;;;;;;;;4981461;28;20082;-83
2022/08/24 07:54:06;;;;;;;8.43;6.70;;;;;;;;;;4981449;28;20034;-83
2022/08/24 07:56:33;;;;;;;7.53;5.30;;;;;;;;;;4981316;28;20054;-82
2022/08/24 07:58:59;;;;;;;7.18;5.22;;;;;;;;;;4977395;28;20655;-84
2022/08/24 08:01:25;;;;;;;8.10;5.13;;;;;;;;;;4978745;28;20034;-83
2022/08/24 08:03:52;;;;;;;7.05;4.97;;;;;;;;;;4977201;28;20069;-83
2022/08/24 08:06:21;;;;;;;8.43;5.25;;;;;;;;;;4979650;28;20042;-84
2022/08/24 08:08:47;;;;;;;8.10;5.50;;;;;;;;;;4977394;28;20027;-83
2022/08/24 08:11:13;;;;;;;10.07;5.38;;;;;;;;;;4979495;28;20098;-84
2022/08/24 08:13:39;;;;;;;8.30;5.40;;;;;;;;;;4980275;28;20018;-84
2022/08/24 08:16:05;;;;;;;8.23;4.63;;;;;;;;;;4988425;28;20152;-84
2022/08/24 08:18:31;;;;;;;7.05;5.20;;;;;;;;;;5016363;28;20032;-83
2022/08/24 08:20:57;;;;;;;7.15;5.45;;;;;;;;;;5002810;28;20034;-84
2022/08/24 08:26:16;;;;;;;7.43;4.72;;;;;;;;;;5022096;28;20096;-84
2022/08/24 08:28:42;;;;;;;7.53;5.05;;;;;;;;;;5021214;28;20072;-83
2022/08/24 08:31:08;;;;;;;8.95;5.28;;;;;;;;;;5020423;28;20080;-84
2022/08/24 08:33:35;;;;;;;7.38;5.05;;;;;;;;;;5002616;28;20033;-84
2022/08/24 08:36:13;;;;;;;8.07;4.78;;;;;;;;;;5021377;28;20076;-83
2022/08/24 08:38:41;;;;;;;7.80;5.05;;;;;;;;;;5019958;28;20041;-84
2022/08/24 08:41:17;;;;;;;7.95;5.47;;;;;;;;;;5020432;28;20041;-83
2022/08/24 08:43:43;;;;;;;7.95;4.95;;;;;;;;;;5021111;28;20090;-84
2022/08/24 08:46:39;;;;;;;6.85;4.82;;;;;;;;;;5019209;28;20089;-84
2022/08/24 08:49:05;;;;;;;8.38;5.25;;;;;;;;;;5011933;28;20164;-81
2022/08/24 08:51:32;;;;;;;6.93;5.22;;;;;;;;;;5008992;28;21211;-83
2022/08/24 08:54:13;;;;;;;7.88;5.57;;;;;;;;;;4999911;28;20080;-85
2022/08/24 08:57:03;;;;;;;15.88;6.47;;;;;;;;;;4994032;28;20371;-84
2022/08/24 08:59:29;;;;;;;7.50;5.30;;;;;;;;;;5003508;28;20049;-85
2022/08/24 09:02:04;;;;;;;8.55;5.38;;;;;;;;;;5017292;28;20026;-83
2022/08/24 09:04:50;;;;;;;8.07;5.28;;;;;;;;;;5019379;28;20022;-84
2022/08/24 09:07:24;;;;;;;8.35;5.40;;;;;;;;;;4999641;28;20022;-82
2022/08/24 09:09:59;;;;;;;7.72;5.57;;;;;;;;;;4998891;28;20023;-83
2022/08/24 09:12:43;;;;;;;8.20;5.70;;;;;;;;;;4982869;28;20125;-84
2022/08/24 09:15:17;;;;;;;8.02;4.95;;;;;;;;;;5001660;28;20026;-82
2022/08/24 09:18:00;;;;;;;7.88;5.90;;;;;;;;;;5019393;28;20050;-83
2022/08/24 09:20:40;;;;;;;8.05;5.57;;;;;;;;;;5020804;28;20044;-83
2022/08/24 09:23:24;;;;;;;8.52;6.28;;;;;;;;;;5018778;28;20022;-83
2022/08/24 09:26:03;;;;;;;7.60;5.40;;;;;;;;;;4998812;28;20022;-82
2022/08/24 09:28:47;;;;;;;8.27;5.65;;;;;;;;;;5019221;28;20054;-83
2022/08/24 09:31:16;;;;;;;8.18;5.65;;;;;;;;;;5017867;28;20109;-83
2022/08/24 09:33:44;;;;;;;8.20;5.07;;;;;;;;;;5019808;28;20052;-82
2022/08/24 09:36:13;;;;;;;7.47;4.97;;;;;;;;;;5019999;28;20037;-83
2022/08/24 09:38:51;;;;;;;7.75;5.38;;;;;;;;;;5021116;28;20084;-82
2022/08/24 09:41:20;;;;;;;7.72;5.65;;;;;;;;;;5019297;28;20084;-84
2022/08/24 09:43:49;;;;;;;8.60;5.95;;;;;;;;;;5018148;28;20061;-82
2022/08/24 09:46:28;;;;;;;8.48;5.35;;;;;;;;;;5017949;28;20029;-84
2022/08/24 09:49:00;;;;;;;7.32;5.63;;;;;;;;;;5018867;28;20112;-84
2022/08/24 09:51:45;;;;;;;8.10;6.15;;;;;;;;;;4999915;28;20038;-84
2022/08/24 09:54:14;;;;;;;7.97;5.82;;;;;;;;;;4997433;28;20125;-83
2022/08/24 09:56:58;;;;;;;7.47;5.55;;;;;;;;;;5009282;28;20449;-83
2022/08/24 09:59:30;;;;;;;8.23;5.78;;;;;;;;;;5002916;28;20037;-82
2022/08/24 10:01:59;;;;;;;8.57;5.97;;;;;;;;;;5013038;28;20029;-83
2022/08/24 10:04:30;;;;;;;8.98;6.10;;;;;;;;;;5000356;28;20034;-83
2022/08/24 10:07:03;;;;;;;8.57;6.13;;;;;;;;;;4999440;28;20109;-85
2022/08/24 10:09:35;;;;;;;8.02;6.03;;;;;;;;;;4999892;28;20026;-83
2022/08/24 10:12:15;;;;;;;8.35;5.75;;;;;;;;;;5001268;28;20438;-82
2022/08/24 10:14:50;;;;;;;7.75;5.70;;;;;;;;;;5000783;28;20030;-82
2022/08/24 10:17:36;;;;;;;7.60;5.70;;;;;;;;;;5018858;28;20507;-83
2022/08/24 10:20:22;;;;;;;6.97;5.03;;;;;;;;;;4997480;28;20042;-84
2022/08/24 10:22:54;;;;;;;9.07;5.97;;;;;;;;;;4995157;28;20022;-84
2022/08/24 10:25:30;;;;;;;7.70;5.75;;;;;;;;;;5012261;28;20026;-84
2022/08/24 10:28:06;;;;;;;7.70;5.85;;;;;;;;;;4982435;28;20033;-83
2022/08/24 10:30:32;;;;;;;8.73;6.20;;;;;;;;;;4985746;28;20029;-84
2022/08/24 10:33:13;;;;;;;8.18;5.55;;;;;;;;;;5006530;28;20405;-84
2022/08/24 10:35:48;;;;;;;8.38;6.13;;;;;;;;;;5015933;28;20087;-82
2022/08/24 10:41:34;;;;;;;7.55;5.18;;;;;;;;;;5013231;28;20406;-85
2022/08/24 10:44:04;;;;;;;7.88;5.78;;;;;;;;;;5015671;28;20022;-83
2022/08/24 10:46:37;;;;;;;7.97;5.88;;;;;;;;;;5019808;28;20094;-83
2022/08/24 10:49:12;;;;;;;7.50;5.78;;;;;;;;;;5001494;28;20022;-85
2022/08/24 10:51:57;;;;;;;8.13;5.07;;;;;;;;;;5014803;28;20034;-83
2022/08/24 10:54:24;;;;;;;8.10;5.53;;;;;;;;;;5013218;28;20052;-83
2022/08/24 10:57:07;;;;;;;8.65;5.45;;;;;;;;;;5001621;28;20018;-83
2022/08/24 10:59:39;;;;;;;9.55;5.35;;;;;;;;;;5001423;28;20030;-84
2022/08/24 11:02:25;;;;;;;8.10;5.75;;;;;;;;;;5016997;28;20030;-85
2022/08/24 11:04:55;;;;;;;7.15;5.38;;;;;;;;;;5000463;28;20057;-84
2022/08/24 11:07:21;;;;;;;7.95;5.57;;;;;;;;;;5021442;28;20018;-84
2022/08/24 11:09:55;;;;;;;8.10;5.95;;;;;;;;;;5003762;28;20030;-84
2022/08/24 11:12:32;;;;;;;8.48;5.90;;;;;;;;;;4989448;28;20026;-84
2022/08/24 11:14:59;;;;;;;8.23;5.90;;;;;;;;;;4988887;28;20093;-85
2022/08/24 11:17:27;;;;;;;7.60;5.70;;;;;;;;;;5002306;28;20526;-84
2022/08/24 11:19:53;;;;;;;7.40;5.97;;;;;;;;;;5008071;28;20029;-84
2022/08/24 11:22:29;;;;;;;7.82;5.60;;;;;;;;;;5021362;28;20033;-83
2022/08/24 11:24:58;;;;;;;7.50;5.78;;;;;;;;;;5021037;28;20088;-85
2022/08/24 11:27:24;;;;;;;8.73;6.32;;;;;;;;;;5020576;28;20018;-85
2022/08/24 11:29:50;;;;;;;7.95;5.22;;;;;;;;;;5002184;28;20571;-84
2022/08/24 11:32:28;;;;;;;7.47;5.63;;;;;;;;;;4994453;28;20062;-84
2022/08/24 11:34:55;;;;;;;8.88;5.80;;;;;;;;;;5019269;28;20060;-84
2022/08/24 11:37:31;;;;;;;7.80;5.47;;;;;;;;;;5027512;28;20165;-81
2022/08/24 11:39:57;;;;;;;8.93;5.55;;;;;;;;;;5031407;28;20051;-83
2022/08/24 11:42:32;;;;;;;7.30;5.47;;;;;;;;;;5024826;28;20033;-83
2022/08/24 11:45:01;;;;;;;8.00;6.20;;;;;;;;;;5024185;28;20042;-82
2022/08/24 11:47:30;;;;;;;8.75;5.82;;;;;;;;;;5025001;28;20026;-83
2022/08/24 11:50:15;;;;;;;8.75;5.57;;;;;;;;;;5023611;28;20102;-83
2022/08/24 11:52:50;;;;;;;8.23;5.55;;;;;;;;;;4996431;28;20081;-82
2022/08/24 11:55:19;;;;;;;8.25;5.93;;;;;;;;;;5008385;28;20104;-83
2022/08/24 11:57:52;;;;;;;8.60;6.10;;;;;;;;;;5010827;28;20034;-84
2022/08/24 12:00:21;;;;;;;8.63;6.22;;;;;;;;;;5005157;28;20026;-81
2022/08/24 12:03:06;;;;;;;8.27;6.03;;;;;;;;;;5025080;28;20081;-82
2022/08/24 12:05:32;;;;;;;7.97;5.35;;;;;;;;;;5005721;28;20026;-82
2022/08/24 12:08:10;;;;;;;8.35;5.68;;;;;;;;;;5009642;28;20056;-83
2022/08/24 12:10:55;;;;;;;7.70;5.35;;;;;;;;;;5024364;28;20029;-83
2022/08/24 12:13:36;;;;;;;8.15;5.57;;;;;;;;;;5024536;28;20026;-83
2022/08/24 12:16:06;;;;;;;8.63;5.78;;;;;;;;;;5023930;28;20077;-81
2022/08/24 12:18:35;;;;;;;8.00;5.55;;;;;;;;;;5001976;28;20556;-83
2022/08/24 12:21:02;;;;;;;8.45;5.82;;;;;;;;;;5004981;28;20038;-83
2022/08/24 12:23:36;;;;;;;9.18;6.43;;;;;;;;;;5023221;28;20037;-84
2022/08/24 12:26:04;;;;;;;8.73;6.35;;;;;;;;;;5026470;28;20049;-82
2022/08/24 12:28:50;;;;;;;8.63;6.18;;;;;;;;;;5023880;28;20082;-83
2022/08/24 12:31:20;;;;;;;9.43;6.68;;;;;;;;;;5022632;28;20026;-83
2022/08/24 12:33:50;;;;;;;8.27;6.63;;;;;;;;;;5021824;28;20089;-83
2022/08/24 12:36:27;;;;;;;9.57;6.60;;;;;;;;;;5018199;28;20022;-81
2022/08/24 12:39:00;;;;;;;9.02;6.55;;;;;;;;;;5024510;28;20613;-83
2022/08/24 12:41:28;;;;;;;8.80;6.32;;;;;;;;;;5007847;28;20401;-82
2022/08/24 12:44:01;;;;;;;8.15;6.55;;;;;;;;;;5023205;28;20117;-82
2022/08/24 12:46:27;;;;;;;9.30;6.38;;;;;;;;;;5018469;28;20029;-83
2022/08/24 12:48:58;;;;;;;8.60;6.18;;;;;;;;;;5021831;28;20516;-82
2022/08/24 12:51:50;;;;;;;8.57;5.90;;;;;;;;;;5016536;28;20129;-83
2022/08/24 12:54:28;;;;;;;8.80;6.03;;;;;;;;;;5022565;28;20041;-83
2022/08/24 12:57:06;;;;;;;9.35;6.60;;;;;;;;;;5019759;28;20038;-83
2022/08/24 12:59:42;;;;;;;7.68;6.10;;;;;;;;;;5017593;28;20025;-81
2022/08/24 13:02:25;;;;;;;9.65;6.43;;;;;;;;;;5012107;28;20036;-82
2022/08/24 13:04:52;;;;;;;8.80;5.80;;;;;;;;;;5015548;28;20025;-84
2022/08/24 13:07:18;;;;;;;8.02;5.82;;;;;;;;;;5008303;28;20046;-81
2022/08/24 13:09:44;;;;;;;8.60;6.22;;;;;;;;;;5011128;28;20079;-83
2022/08/24 13:12:29;;;;;;;7.82;6.03;;;;;;;;;;5013082;28;20575;-82
2022/08/24 13:15:15;;;;;;;9.68;6.47;;;;;;;;;;5016775;28;20078;-82
2022/08/24 13:17:41;;;;;;;9.30;6.00;;;;;;;;;;5015802;28;20045;-82
2022/08/24 13:20:19;;;;;;;9.85;6.50;;;;;;;;;;5013073;28;20030;-83
2022/08/24 13:23:03;;;;;;;8.88;6.38;;;;;;;;;;5010676;28;20094;-82
2022/08/24 13:25:50;;;;;;;8.30;6.13;;;;;;;;;;5008182;28;20041;-82
2022/08/24 13:28:19;;;;;;;9.40;6.40;;;;;;;;;;5009925;28;20026;-81
2022/08/24 13:31:05;;;;;;;9.00;6.90;;;;;;;;;;5009746;28;20057;-82
2022/08/24 13:33:34;;;;;;;8.50;5.97;;;;;;;;;;5012646;28;20022;-82
2022/08/24 13:36:00;;;;;;;8.88;6.82;;;;;;;;;;5013139;28;20033;-80
2022/08/24 13:38:35;;;;;;;8.07;6.28;;;;;;;;;;4993813;28;20113;-82
2022/08/24 13:41:05;;;;;;;8.45;5.95;;;;;;;;;;4992869;28;20037;-82
2022/08/24 13:43:37;;;;;;;8.57;6.15;;;;;;;;;;5015488;28;20053;-83
2022/08/24 13:46:15;;;;;;;9.68;6.05;;;;;;;;;;5013957;28;20058;-82
2022/08/24 13:48:59;;;;;;;9.25;6.32;;;;;;;;;;5012073;28;20437;-83
2022/08/24 13:51:31;;;;;;;8.25;6.03;;;;;;;;;;5018317;28;20018;-84
2022/08/24 13:54:05;;;;;;;9.77;6.85;;;;;;;;;;5022016;28;20026;-83
2022/08/24 13:56:38;;;;;;;9.40;6.32;;;;;;;;;;5016482;28;20034;-83
2022/08/24 13:59:35;;;;;;;8.63;6.22;;;;;;;;;;5016808;28;20497;-85
2022/08/24 14:02:05;;;;;;;8.45;6.28;;;;;;;;;;5020197;28;20022;-82
2022/08/24 14:04:37;;;;;;;8.98;6.00;;;;;;;;;;5017689;28;20068;-81
2022/08/24 14:07:10;;;;;;;10.07;6.35;;;;;;;;;;4994001;28;20027;-82
2022/08/24 14:09:55;;;;;;;9.18;6.03;;;;;;;;;;5019289;28;20057;-83
2022/08/24 14:12:30;;;;;;;8.20;5.90;;;;;;;;;;5018235;28;20030;-83
2022/08/24 14:15:15;;;;;;;9.40;6.32;;;;;;;;;;5020593;28;20037;-83
2022/08/24 14:18:03;;;;;;;9.85;6.10;;;;;;;;;;5018540;28;20089;-81
2022/08/24 14:20:42;;;;;;;7.97;6.28;;;;;;;;;;5020444;28;20022;-83
2022/08/24 14:23:26;;;;;;;9.02;6.38;;;;;;;;;;4997066;28;20393;-82
2022/08/24 14:26:31;;;;;;;8.35;5.93;;;;;;;;;;5022652;28;20078;-83
2022/08/24 14:29:23;;;;;;;8.90;5.75;;;;;;;;;;4922617;29;20044;-82
2022/08/24 14:31:54;;;;;;;8.13;6.03;;;;;;;;;;4893987;29;20036;-83
2022/08/24 14:34:32;;;;;;;8.35;6.40;;;;;;;;;;4993241;28;20125;-83
2022/08/24 14:37:18;;;;;;;7.93;5.78;;;;;;;;;;5022083;28;20026;-82
2022/08/24 14:39:51;;;;;;;8.30;6.40;;;;;;;;;;5021223;28;20053;-83
2022/08/24 14:42:21;;;;;;;8.43;5.95;;;;;;;;;;5023184;28;20053;-80
2022/08/24 14:44:47;;;;;;;8.52;6.32;;;;;;;;;;5024835;28;20108;-82
2022/08/24 14:47:24;;;;;;;7.90;6.32;;;;;;;;;;5024667;28;20030;-82
2022/08/24 14:50:09;;;;;;;9.35;6.35;;;;;;;;;;5021442;28;20033;-83
2022/08/24 14:52:50;;;;;;;10.70;6.25;;;;;;;;;;5004255;28;20030;-83
2022/08/24 14:55:35;;;;;;;9.55;6.55;;;;;;;;;;5009765;28;20022;-82
2022/08/24 14:58:01;;;;;;;8.02;6.45;;;;;;;;;;5011103;28;20030;-82
2022/08/24 15:00:45;;;;;;;8.65;6.40;;;;;;;;;;5017934;28;20105;-82
2022/08/24 15:03:17;;;;;;;9.90;5.90;;;;;;;;;;5016384;28;20029;-83
2022/08/24 15:05:49;;;;;;;8.93;6.90;;;;;;;;;;5017868;28;20055;-82
2022/08/24 15:08:32;;;;;;;7.80;6.03;;;;;;;;;;5005654;28;20124;-83
2022/08/24 15:11:10;;;;;;;7.68;5.72;;;;;;;;;;5027367;28;20084;-83
2022/08/24 15:13:45;;;;;;;8.85;6.57;;;;;;;;;;5005991;28;20105;-82